createdAt,value
2022-10-11T00:01:09.191Z,101201.31
2022-10-11T00:03:37.940Z,101189.44
2022-10-11T00:06:07.437Z,101183.75
2022-10-11T00:08:38.100Z,101185.06
2022-10-11T00:11:08.658Z,101182.53
2022-10-11T00:13:37.627Z,101186.94
2022-10-11T00:16:10.283Z,101172.84
2022-10-11T00:18:39.807Z,101177.06
2022-10-11T00:21:11.987Z,101180.75
2022-10-11T00:23:43.178Z,101161.59
2022-10-11T00:26:12.150Z,101159.88
2022-10-11T00:28:41.623Z,101151.91
2022-10-11T00:31:11.502Z,101154.72
2022-10-11T00:33:40.135Z,101144.56
2022-10-11T00:36:10.373Z,101140.09
2022-10-11T00:38:39.764Z,101138.81
2022-10-11T00:41:09.797Z,101133.53
2022-10-11T00:43:38.523Z,101122.47
2022-10-11T00:46:24.311Z,101124.38
2022-10-11T00:48:58.391Z,101121.03
2022-10-11T00:51:40.867Z,101117.84
2022-10-11T00:54:13.522Z,101114.09
2022-10-11T00:56:49.339Z,101102.25
2022-10-11T00:59:25.238Z,101103.41
2022-10-11T01:01:54.379Z,101098.09
2022-10-11T01:04:23.011Z,101089.50
2022-10-11T01:06:52.973Z,101086.50
2022-10-11T01:09:22.603Z,101088.41
2022-10-11T01:11:55.233Z,101074.16
2022-10-11T01:14:54.085Z,101075.44
2022-10-11T01:17:31.746Z,101068.75
2022-10-11T01:20:37.093Z,101064.44
2022-10-11T01:23:40.736Z,101070.28
2022-10-11T01:26:42.608Z,101065.53
2022-10-11T01:29:23.426Z,101057.13
2022-10-11T01:31:58.812Z,101059.72
2022-10-11T01:34:33.011Z,101056.38
2022-10-11T01:37:07.363Z,101047.84
2022-10-11T01:39:40.996Z,101046.50
2022-10-11T01:42:13.152Z,101039.28
2022-10-11T01:44:46.367Z,101033.78
2022-10-11T01:47:20.972Z,101025.38
2022-10-11T01:49:55.599Z,101020.81
2022-10-11T01:52:24.484Z,101018.06
2022-10-11T01:55:09.606Z,101015.13
2022-10-11T01:57:59.916Z,101019.69
2022-10-11T02:00:33.218Z,101009.47
2022-10-11T02:03:14.805Z,101007.16
2022-10-11T02:05:51.214Z,101005.97
2022-10-11T02:08:26.953Z,100993.94
2022-10-11T02:11:06.106Z,101000.38
2022-10-11T02:13:39.935Z,100994.31
2022-10-11T02:16:13.149Z,100985.97
2022-10-11T02:18:48.642Z,100988.50
2022-10-11T02:21:20.942Z,100980.72
2022-10-11T02:23:55.022Z,100974.41
2022-10-11T02:26:26.505Z,100972.44
2022-10-11T02:29:01.292Z,100970.06
2022-10-11T02:31:32.658Z,100966.44
2022-10-11T02:34:11.266Z,100956.16
2022-10-11T02:36:48.710Z,100958.03
2022-10-11T02:39:23.388Z,100954.28
2022-10-11T02:41:54.677Z,100952.34
2022-10-11T02:44:31.999Z,100936.69
2022-10-11T02:47:02.473Z,100933.75
2022-10-11T02:49:33.716Z,100935.66
2022-10-11T02:52:02.495Z,100931.88
2022-10-11T02:54:31.069Z,100922.38
2022-10-11T02:56:59.842Z,100922.38
2022-10-11T02:59:28.436Z,100926.19
2022-10-11T03:01:57.038Z,100918.97
2022-10-11T03:04:25.805Z,100914.03
2022-10-11T03:06:56.017Z,100905.63
2022-10-11T03:09:24.781Z,100906.31
2022-10-11T03:11:53.369Z,100910.47
2022-10-11T03:14:22.006Z,100901.16
2022-10-11T03:16:51.655Z,100898.22
2022-10-11T03:19:20.365Z,100896.03
2022-10-11T03:21:49.137Z,100887.66
2022-10-11T03:24:19.173Z,100890.97
2022-10-11T03:26:47.842Z,100884.03
2022-10-11T03:29:16.492Z,100888.00
2022-10-11T03:31:45.266Z,100882.59
2022-10-11T03:34:14.205Z,100866.97
2022-10-11T03:36:43.064Z,100867.28
2022-10-11T03:39:11.677Z,100860.66
2022-10-11T03:41:41.860Z,100855.03
2022-10-11T03:44:10.703Z,100853.00
2022-10-11T03:46:39.292Z,100854.56
2022-10-11T03:49:07.830Z,100850.44
2022-10-11T03:51:36.628Z,100847.16
2022-10-11T03:54:05.400Z,100839.63
2022-10-11T03:56:34.298Z,100842.31
2022-10-11T03:59:04.431Z,100843.59
2022-10-11T04:01:37.797Z,100837.38
2022-10-11T04:04:07.488Z,100831.59
2022-10-11T04:06:36.071Z,100831.38
2022-10-11T04:09:05.252Z,100827.53
2022-10-11T04:11:33.833Z,100828.41
2022-10-11T04:14:03.869Z,100828.91
2022-10-11T04:16:32.574Z,100831.97
2022-10-11T04:19:01.203Z,100833.69
2022-10-11T04:21:29.900Z,100824.19
2022-10-11T04:23:58.593Z,100819.19
2022-10-11T04:26:27.694Z,100817.69
2022-10-11T04:28:56.408Z,100816.53
2022-10-11T04:31:26.610Z,100817.84
2022-10-11T04:33:55.229Z,100800.75
2022-10-11T04:36:23.912Z,100804.88
2022-10-11T04:38:52.662Z,100792.34
2022-10-11T04:41:21.280Z,100793.03
2022-10-11T04:43:50.151Z,100784.66
2022-10-11T04:46:18.813Z,100788.63
2022-10-11T04:48:48.880Z,100790.31
2022-10-11T04:51:17.586Z,100786.28
2022-10-11T04:53:46.444Z,100783.13
2022-10-11T04:56:17.031Z,100774.19
2022-10-11T04:58:48.319Z,100780.84
2022-10-11T05:01:17.186Z,100781.00
2022-10-11T05:03:45.672Z,100781.31
2022-10-11T05:06:15.814Z,100775.25
2022-10-11T05:08:44.549Z,100777.41
2022-10-11T05:11:16.145Z,100777.84
2022-10-11T05:13:45.854Z,100774.28
2022-10-11T05:16:18.183Z,100770.41
2022-10-11T05:18:47.035Z,100760.63
2022-10-11T05:21:20.528Z,100760.81
2022-10-11T05:23:51.224Z,100754.41
2022-10-11T05:26:20.931Z,100757.28
2022-10-11T05:28:49.765Z,100750.47
2022-10-11T05:31:18.852Z,100744.81
2022-10-11T05:33:47.628Z,100747.25
2022-10-11T05:36:17.788Z,100744.28
2022-10-11T05:38:46.598Z,100743.19
2022-10-11T05:41:16.526Z,100742.66
2022-10-11T05:43:46.081Z,100742.97
2022-10-11T05:46:14.780Z,100744.16
2022-10-11T05:48:43.501Z,100748.31
2022-10-11T05:51:13.666Z,100746.28
2022-10-11T05:53:43.787Z,100745.50
2022-10-11T05:56:26.579Z,100737.78
2022-10-11T05:58:59.949Z,100729.25
2022-10-11T06:01:31.084Z,100721.41
2022-10-11T06:03:59.760Z,100719.75
2022-10-11T06:06:28.519Z,100718.34
2022-10-11T06:08:58.766Z,100720.66
2022-10-11T06:11:29.326Z,100720.81
2022-10-11T06:13:59.459Z,100713.31
2022-10-11T06:16:28.592Z,100709.34
2022-10-11T06:18:58.310Z,100694.88
2022-10-11T06:21:27.229Z,100695.81
2022-10-11T06:24:01.356Z,100678.91
2022-10-11T06:26:30.703Z,100676.00
2022-10-11T06:28:59.844Z,100691.84
2022-10-11T06:31:28.539Z,100687.59
2022-10-11T06:33:57.206Z,100667.97
2022-10-11T06:36:25.920Z,100676.50
2022-10-11T06:38:55.131Z,100674.81
2022-10-11T06:41:27.928Z,100677.25
2022-10-11T06:43:57.340Z,100690.28
2022-10-11T06:46:28.203Z,100695.63
2022-10-11T06:48:57.288Z,100689.47
2022-10-11T06:51:27.382Z,100685.72
2022-10-11T06:53:57.989Z,100683.53
2022-10-11T06:56:28.947Z,100696.69
2022-10-11T06:58:58.908Z,100694.66
2022-10-11T07:01:28.725Z,100697.72
2022-10-11T07:04:00.170Z,100700.75
2022-10-11T07:06:31.690Z,100705.84
2022-10-11T07:09:01.816Z,100711.72
2022-10-11T07:11:32.272Z,100716.22
2022-10-11T07:14:04.624Z,100715.25
2022-10-11T07:16:33.320Z,100712.34
2022-10-11T07:19:03.164Z,100711.00
2022-10-11T07:21:34.011Z,100709.69
2022-10-11T07:24:03.780Z,100716.72
2022-10-11T07:26:38.672Z,100715.25
2022-10-11T07:29:08.262Z,100720.63
2022-10-11T07:31:38.780Z,100714.41
2022-10-11T07:34:07.803Z,100720.13
2022-10-11T07:36:36.516Z,100716.97
2022-10-11T07:39:07.311Z,100724.13
2022-10-11T07:41:44.605Z,100704.31
2022-10-11T07:44:14.444Z,100710.75
2022-10-11T07:46:43.278Z,100720.63
2022-10-11T07:49:12.096Z,100719.16
2022-10-11T07:51:40.686Z,100719.41
2022-10-11T07:54:09.586Z,100720.50
2022-10-11T07:56:40.385Z,100717.97
2022-10-11T07:59:09.131Z,100719.06
2022-10-11T08:01:37.890Z,100725.00
2022-10-11T08:04:07.035Z,100732.44
2022-10-11T08:06:36.803Z,100726.63
2022-10-11T08:09:06.984Z,100717.13
2022-10-11T08:11:38.278Z,100725.50
2022-10-11T08:14:11.553Z,100712.34
2022-10-11T08:16:41.210Z,100702.66
2022-10-11T08:19:09.958Z,100700.28
2022-10-11T08:21:38.705Z,100704.31
2022-10-11T08:24:08.331Z,100705.28
2022-10-11T08:26:37.034Z,100703.34
2022-10-11T08:29:05.747Z,100701.25
2022-10-11T08:31:36.514Z,100707.25
2022-10-11T08:34:06.525Z,100708.44
2022-10-11T08:36:35.322Z,100710.75
2022-10-11T08:39:03.934Z,100709.94
2022-10-11T08:41:42.356Z,100697.91
2022-10-11T08:44:52.134Z,100702.16
2022-10-11T08:47:32.116Z,100716.53
2022-10-11T08:50:02.087Z,100705.19
2022-10-11T08:52:42.297Z,100702.28
2022-10-11T08:55:20.402Z,100690.94
2022-10-11T08:57:55.565Z,100699.22
2022-10-11T09:00:25.692Z,100701.31
2022-10-11T09:03:09.675Z,100705.81
2022-10-11T09:05:53.334Z,100700.19
2022-10-11T09:08:31.106Z,100693.84
2022-10-11T09:11:07.444Z,100684.81
2022-10-11T09:13:57.687Z,100681.66
2022-10-11T09:16:36.967Z,100679.47
2022-10-11T09:19:40.845Z,100679.56
2022-10-11T09:22:17.212Z,100683.56
2022-10-11T09:25:00.549Z,100676.00
2022-10-11T09:28:00.836Z,100679.09
2022-10-11T09:30:22.552Z,100675.16
2022-10-11T09:33:03.242Z,100651.47
2022-10-11T09:35:39.999Z,100663.22
2022-10-11T09:38:15.968Z,100659.31
2022-10-11T09:40:54.546Z,100664.22
2022-10-11T09:43:23.302Z,100665.94
2022-10-11T09:45:52.137Z,100675.56
2022-10-11T09:48:24.442Z,100683.56
2022-10-11T09:50:59.062Z,100690.16
2022-10-11T09:53:56.580Z,100686.50
2022-10-11T09:56:26.781Z,100684.06
2022-10-11T09:59:21.525Z,100694.06
2022-10-11T10:01:50.600Z,100695.19
2022-10-11T10:04:19.347Z,100692.66
2022-10-11T10:06:49.602Z,100690.69
2022-10-11T10:09:26.964Z,100698.22
2022-10-11T10:11:56.604Z,100695.25
2022-10-11T10:14:29.000Z,100701.34
2022-10-11T10:17:04.286Z,100704.31
2022-10-11T10:19:44.954Z,100701.63
2022-10-11T10:22:19.920Z,100696.97
2022-10-11T10:24:50.682Z,100697.72
2022-10-11T10:27:22.619Z,100699.13
2022-10-11T10:30:14.487Z,100708.03
2022-10-11T10:32:51.604Z,100701.31
2022-10-11T10:35:30.770Z,100704.75
2022-10-11T10:38:09.752Z,100708.19
2022-10-11T10:40:43.225Z,100709.91
2022-10-11T10:43:18.789Z,100707.34
2022-10-11T10:46:14.261Z,100713.31
2022-10-11T10:49:28.415Z,100715.56
2022-10-11T10:51:50.879Z,100720.09
2022-10-11T10:54:33.149Z,100721.28
2022-10-11T10:57:05.788Z,100726.66
2022-10-11T10:59:52.687Z,100725.94
2022-10-11T11:02:41.453Z,100721.16
2022-10-11T11:05:21.230Z,100721.88
2022-10-11T11:07:55.907Z,100728.69
2022-10-11T11:10:32.082Z,100731.25
2022-10-11T11:13:16.243Z,100728.41
2022-10-11T11:15:50.222Z,100733.53
2022-10-11T11:18:30.048Z,100741.66
2022-10-11T11:21:15.069Z,100738.03
2022-10-11T11:23:52.433Z,100744.59
2022-10-11T11:26:29.428Z,100739.44
2022-10-11T11:29:21.010Z,100748.34
2022-10-11T11:32:16.009Z,100746.22
2022-10-11T11:34:49.313Z,100742.13
2022-10-11T11:37:28.093Z,100750.31
2022-10-11T11:40:02.973Z,100748.22
2022-10-11T11:42:40.311Z,100748.97
2022-10-11T11:45:18.998Z,100739.97
2022-10-11T11:47:56.725Z,100746.66
2022-10-11T11:50:28.627Z,100740.44
2022-10-11T11:53:04.961Z,100735.94
2022-10-11T11:55:45.518Z,100740.63
2022-10-11T11:58:29.863Z,100736.44
2022-10-11T12:01:06.980Z,100738.97
2022-10-11T12:03:41.884Z,100736.44
2022-10-11T12:06:27.493Z,100751.59
2022-10-11T12:09:06.665Z,100755.28
2022-10-11T12:11:58.102Z,100756.38
2022-10-11T12:14:37.325Z,100749.41
2022-10-11T12:17:12.946Z,100765.13
2022-10-11T12:19:44.997Z,100760.31
2022-10-11T12:22:38.023Z,100755.53
2022-10-11T12:25:42.502Z,100765.31
2022-10-11T12:28:49.817Z,100765.34
2022-10-11T12:31:23.946Z,100769.69
2022-10-11T12:34:04.146Z,100768.72
2022-10-11T12:36:40.397Z,100771.28
2022-10-11T12:39:52.047Z,100767.63
2022-10-11T12:42:31.001Z,100773.03
2022-10-11T12:45:36.266Z,100766.63
2022-10-11T12:48:23.238Z,100762.78
2022-10-11T12:51:07.444Z,100772.13
2022-10-11T12:54:26.039Z,100770.69
2022-10-11T12:57:18.320Z,100764.50
2022-10-11T12:59:47.684Z,100766.91
2022-10-11T13:02:29.245Z,100761.13
2022-10-11T13:05:09.783Z,100767.34
2022-10-11T13:07:42.405Z,100773.59
2022-10-11T13:10:16.325Z,100777.00
2022-10-11T13:12:49.328Z,100772.47
2022-10-11T13:15:22.408Z,100761.69
2022-10-11T13:17:54.326Z,100772.47
2022-10-11T13:20:28.381Z,100774.91
2022-10-11T13:22:58.187Z,100781.69
2022-10-11T13:25:29.179Z,100780.44
2022-10-11T13:27:58.964Z,100772.91
2022-10-11T13:30:30.962Z,100774.78
2022-10-11T13:33:01.506Z,100769.66
2022-10-11T13:35:34.564Z,100769.94
2022-10-11T13:38:04.486Z,100781.13
2022-10-11T13:40:33.687Z,100782.09
2022-10-11T13:43:07.546Z,100774.06
2022-10-11T13:45:39.346Z,100768.09
2022-10-11T13:48:15.588Z,100772.06
2022-10-11T13:50:52.626Z,100778.50
2022-10-11T13:53:25.655Z,100779.63
2022-10-11T13:55:58.364Z,100783.31
2022-10-11T13:58:31.768Z,100778.78
2022-10-11T14:01:03.626Z,100778.25
2022-10-11T14:03:40.909Z,100779.63
2022-10-11T14:06:11.541Z,100783.03
2022-10-11T14:08:46.995Z,100779.63
2022-10-11T14:11:16.575Z,100789.28
2022-10-11T14:13:50.089Z,100784.88
2022-10-11T14:16:31.222Z,100785.88
2022-10-11T14:19:11.625Z,100786.72
2022-10-11T14:21:54.903Z,100789.28
2022-10-11T14:24:23.987Z,100787.56
2022-10-11T14:26:54.524Z,100793.09
2022-10-11T14:29:27.303Z,100792.38
2022-10-11T14:32:00.466Z,100797.91
2022-10-11T14:34:29.607Z,100803.00
2022-10-11T14:36:59.872Z,100806.09
2022-10-11T14:39:31.290Z,100805.53
2022-10-11T14:42:00.071Z,100819.56
2022-10-11T14:44:28.805Z,100812.47
2022-10-11T14:46:57.592Z,100810.03
2022-10-11T14:49:28.525Z,100813.03
2022-10-11T14:51:57.783Z,100815.28
2022-10-11T14:54:30.004Z,100815.91
2022-10-11T14:57:01.770Z,100825.84
2022-10-11T14:59:35.050Z,100831.38
2022-10-11T15:02:04.600Z,100831.91
2022-10-11T15:04:33.392Z,100832.44
2022-10-11T15:07:02.171Z,100830.13
2022-10-11T15:09:32.939Z,100838.00
2022-10-11T15:12:01.705Z,100841.94
2022-10-11T15:14:30.241Z,100838.81
2022-10-11T15:16:59.053Z,100841.28
2022-10-11T15:19:27.713Z,100836.19
2022-10-11T15:21:56.545Z,100838.69
2022-10-11T15:24:25.367Z,100847.69
2022-10-11T15:26:55.645Z,100853.69
2022-10-11T15:29:24.523Z,100851.53
2022-10-11T15:31:53.445Z,100858.38
2022-10-11T15:34:22.241Z,100859.84
2022-10-11T15:36:51.525Z,100855.97
2022-10-11T15:39:26.309Z,100864.53
2022-10-11T15:41:56.645Z,100861.00
2022-10-11T15:44:28.252Z,100870.72
2022-10-11T15:46:56.946Z,100866.97
2022-10-11T15:49:25.607Z,100866.19
2022-10-11T15:51:54.261Z,100874.94
2022-10-11T15:54:22.818Z,100871.66
2022-10-11T15:56:51.403Z,100876.91
2022-10-11T15:59:21.349Z,100877.50
2022-10-11T16:01:50.066Z,100875.91
2022-10-11T16:04:18.701Z,100879.16
2022-10-11T16:06:47.259Z,100879.50
2022-10-11T16:09:15.739Z,100882.31
2022-10-11T16:11:44.352Z,100880.47
2022-10-11T16:14:13.171Z,100882.28
2022-10-11T16:16:43.255Z,100884.25
2022-10-11T16:19:12.266Z,100891.56
2022-10-11T16:21:40.904Z,100890.97
2022-10-11T16:24:09.929Z,100892.66
2022-10-11T16:26:38.524Z,100897.44
2022-10-11T16:29:07.166Z,100892.31
2022-10-11T16:31:35.616Z,100887.50
2022-10-11T16:34:05.799Z,100900.41
2022-10-11T16:36:36.519Z,100896.78
2022-10-11T16:39:09.597Z,100902.03
2022-10-11T16:41:38.680Z,100905.25
2022-10-11T16:44:07.763Z,100911.53
2022-10-11T16:46:36.830Z,100904.94
2022-10-11T16:49:07.123Z,100906.03
2022-10-11T16:51:35.941Z,100903.94
2022-10-11T16:54:04.641Z,100901.84
2022-10-11T16:56:37.411Z,100903.97
2022-10-11T16:59:08.676Z,100901.44
2022-10-11T17:01:37.844Z,100904.75
2022-10-11T17:04:08.379Z,100908.91
2022-10-11T17:06:38.822Z,100916.00
2022-10-11T17:09:07.906Z,100913.16
2022-10-11T17:11:36.582Z,100919.94
2022-10-11T17:14:07.434Z,100916.38
2022-10-11T17:16:36.901Z,100911.72
2022-10-11T17:19:05.665Z,100909.63
2022-10-11T17:21:36.066Z,100913.84
2022-10-11T17:24:05.207Z,100917.34
2022-10-11T17:26:34.244Z,100916.16
2022-10-11T17:29:03.130Z,100904.75
2022-10-11T17:31:32.129Z,100916.06
2022-10-11T17:34:01.491Z,100911.84
2022-10-11T17:36:34.776Z,100911.69
2022-10-11T17:39:08.983Z,100906.97
2022-10-11T17:41:37.906Z,100900.53
2022-10-11T17:44:06.962Z,100911.84
2022-10-11T17:46:35.636Z,100907.34
2022-10-11T17:49:08.036Z,100912.25
2022-10-11T17:51:38.038Z,100912.97
2022-10-11T17:54:12.854Z,100911.41
2022-10-11T17:56:43.130Z,100917.47
2022-10-11T17:59:17.236Z,100913.19
2022-10-11T18:01:46.184Z,100918.66
2022-10-11T18:04:17.019Z,100921.31
2022-10-11T18:06:47.089Z,100921.41
2022-10-11T18:09:18.729Z,100915.00
2022-10-11T18:11:47.911Z,100923.00
2022-10-11T18:14:16.609Z,100926.25
2022-10-11T18:16:45.431Z,100929.97
2022-10-11T18:19:15.325Z,100923.59
2022-10-11T18:21:44.045Z,100935.56
2022-10-11T18:24:16.528Z,100934.31
2022-10-11T18:26:47.705Z,100939.03
2022-10-11T18:29:16.366Z,100939.47
2022-10-11T18:31:44.866Z,100942.59
2022-10-11T18:34:15.974Z,100941.44
2022-10-11T18:36:44.487Z,100944.44
2022-10-11T18:39:15.331Z,100948.28
2022-10-11T18:41:45.964Z,100941.84
2022-10-11T18:44:16.986Z,100942.50
2022-10-11T18:46:45.623Z,100950.31
2022-10-11T18:49:14.830Z,100945.91
2022-10-11T18:51:44.034Z,100947.59
2022-10-11T18:54:20.039Z,100948.44
2022-10-11T18:56:51.488Z,100955.53
2022-10-11T18:59:20.525Z,100952.13
2022-10-11T19:01:52.447Z,100949.47
2022-10-11T19:04:21.716Z,100956.28
2022-10-11T19:06:53.462Z,100956.75
2022-10-11T19:09:24.005Z,100957.59
2022-10-11T19:11:55.587Z,100959.84
2022-10-11T19:14:27.073Z,100961.06
2022-10-11T19:16:56.531Z,100970.13
2022-10-11T19:19:27.266Z,100960.16
2022-10-11T19:21:56.194Z,100968.72
2022-10-11T19:24:27.248Z,100963.41
2022-10-11T19:27:02.061Z,100966.50
2022-10-11T19:29:31.816Z,100973.66
2022-10-11T19:32:03.193Z,100962.56
2022-10-11T19:34:32.931Z,100968.50
2022-10-11T19:37:03.528Z,100967.56
2022-10-11T19:39:32.827Z,100966.50
2022-10-11T19:42:04.584Z,100962.97
2022-10-11T19:44:37.170Z,100972.84
2022-10-11T19:47:08.362Z,100962.34
2022-10-11T19:49:36.892Z,100973.47
2022-10-11T19:52:05.544Z,100974.00
2022-10-11T19:54:34.122Z,100969.63
2022-10-11T19:57:04.363Z,100977.75
2022-10-11T19:59:32.939Z,100969.41
2022-10-11T20:02:01.511Z,100975.25
2022-10-11T20:07:19.003Z,100976.91
2022-10-11T20:09:47.504Z,100982.88
2022-10-11T20:12:17.530Z,100985.00
2022-10-11T20:14:46.111Z,100986.50
2022-10-11T20:17:14.801Z,100991.00
2022-10-11T20:19:43.378Z,100988.34
2022-10-11T20:22:12.229Z,100980.81
2022-10-11T20:24:42.307Z,100981.78
2022-10-11T20:27:10.997Z,100986.66
2022-10-11T20:29:40.947Z,100985.94
2022-10-11T20:32:10.547Z,100984.97
2022-10-11T20:34:39.724Z,100987.63
2022-10-11T20:37:08.355Z,100991.81
2022-10-11T20:39:37.154Z,100989.25
2022-10-11T20:42:05.794Z,100982.84
2022-10-11T20:44:34.427Z,100990.94
2022-10-11T20:47:04.560Z,100990.84
2022-10-11T20:49:33.175Z,101017.84
2022-10-11T20:52:01.726Z,101000.34
2022-10-11T20:54:30.872Z,100984.81
2022-10-11T20:57:00.444Z,100989.06
2022-10-11T20:59:29.239Z,100985.53
2022-10-11T21:01:58.081Z,100981.25
2022-10-11T21:04:28.090Z,100986.59
2022-10-11T21:06:56.737Z,100981.06
2022-10-11T21:09:25.556Z,100980.81
2022-10-11T21:11:54.246Z,100991.31
2022-10-11T21:14:22.923Z,100995.06
2022-10-11T21:16:51.507Z,100995.69
2022-10-11T21:19:20.109Z,100992.16
2022-10-11T21:21:53.732Z,100987.66
2022-10-11T21:24:23.139Z,100998.59
2022-10-11T21:26:52.031Z,101003.31
2022-10-11T21:29:21.889Z,101007.81
2022-10-11T21:31:50.558Z,101007.81
2022-10-11T21:34:19.162Z,101008.00
2022-10-11T21:36:47.826Z,101012.63
2022-10-11T21:39:17.883Z,101009.84
2022-10-11T21:41:46.862Z,101020.44
2022-10-11T21:44:15.974Z,101010.28
2022-10-11T21:49:33.347Z,101012.72
2022-10-11T21:52:02.016Z,101015.06
2022-10-11T21:54:32.161Z,101013.16
2022-10-11T21:57:00.877Z,101008.56
2022-10-11T21:59:29.447Z,101010.03
2022-10-11T22:02:01.846Z,101008.19
2022-10-11T22:04:30.974Z,101016.56
2022-10-11T22:06:59.706Z,101013.03
2022-10-11T22:09:30.025Z,101023.38
2022-10-11T22:12:00.324Z,101018.78
2022-10-11T22:14:29.269Z,101025.09
2022-10-11T22:16:58.494Z,101026.56
2022-10-11T22:19:27.284Z,101019.53
2022-10-11T22:21:55.944Z,101022.19
2022-10-11T22:24:24.607Z,101019.53
2022-10-11T22:26:53.204Z,101026.56
2022-10-11T22:29:25.355Z,101029.38
2022-10-11T22:31:54.153Z,101021.44
2022-10-11T22:34:22.730Z,101022.75
2022-10-11T22:36:51.459Z,101019.78
2022-10-11T22:39:20.124Z,101027.38
2022-10-11T22:41:48.891Z,101024.19
2022-10-11T22:44:17.679Z,101024.72
2022-10-11T22:46:47.880Z,101023.31
2022-10-11T22:49:16.732Z,101030.94
2022-10-11T22:51:45.824Z,101029.53
2022-10-11T22:54:14.689Z,101030.06
2022-10-11T22:56:43.372Z,101026.84
2022-10-11T22:59:12.146Z,101027.19
2022-10-11T23:01:40.893Z,101027.63
2022-10-11T23:04:11.048Z,101026.22
2022-10-11T23:06:39.784Z,101030.91
2022-10-11T23:09:08.615Z,101031.13
2022-10-11T23:11:37.288Z,101034.88
2022-10-11T23:14:06.152Z,101041.19
2022-10-11T23:16:34.844Z,101042.56
2022-10-11T23:19:03.483Z,101039.13
2022-10-11T23:21:33.632Z,101048.22
2022-10-11T23:24:02.236Z,101054.63
2022-10-11T23:26:30.942Z,101053.78
2022-10-11T23:28:59.670Z,101052.91
2022-10-11T23:31:28.473Z,101055.69
2022-10-11T23:33:57.182Z,101050.53
2022-10-11T23:36:27.506Z,101055.88
2022-10-11T23:38:58.992Z,101054.19
2022-10-11T23:41:29.786Z,101058.38
2022-10-11T23:43:59.370Z,101046.50
2022-10-11T23:46:28.024Z,101055.06
2022-10-11T23:48:56.739Z,101049.31
2022-10-11T23:51:25.518Z,101064.91
2022-10-11T23:53:54.493Z,101070.09
2022-10-11T23:56:24.951Z,101067.41
2022-10-11T23:58:53.686Z,101063.97
